createdAt,value
2022-10-04T00:04:27.687Z,2.5
2022-10-04T00:10:47.528Z,2.5
2022-10-04T00:17:10.660Z,3.1
2022-10-04T00:23:30.608Z,3.1
2022-10-04T00:29:53.585Z,2.6
2022-10-04T00:36:13.589Z,2.6
2022-10-04T00:42:36.590Z,4.6
2022-10-04T00:48:56.579Z,4.6
2022-10-04T00:55:19.676Z,3.3
2022-10-04T01:01:39.816Z,3.3
2022-10-04T01:08:02.591Z,3.6
2022-10-04T01:14:22.647Z,3.6
2022-10-04T01:20:45.507Z,4.3
2022-10-04T01:27:05.606Z,4.3
2022-10-04T01:33:28.647Z,3
2022-10-04T01:39:48.673Z,3
2022-10-04T01:46:11.667Z,6.1
2022-10-04T01:52:31.649Z,6.1
2022-10-04T01:58:54.557Z,3.4
2022-10-04T02:05:14.481Z,3.4
2022-10-04T02:11:37.628Z,3.5
2022-10-04T02:17:57.595Z,3.5
2022-10-04T02:24:20.631Z,3.7
2022-10-04T02:30:40.599Z,3.7
2022-10-04T02:37:03.513Z,6.2
2022-10-04T02:43:23.575Z,6.2
2022-10-04T02:49:46.568Z,3.7
2022-10-04T02:56:06.600Z,3.7
2022-10-04T03:02:30.454Z,4.7
2022-10-04T03:18:01.399Z,4.3
2022-10-04T03:24:21.497Z,4.3
2022-10-04T03:30:44.567Z,8.5
2022-10-04T03:37:04.692Z,8.5
2022-10-04T03:43:27.553Z,8.5
2022-10-04T03:49:50.780Z,8.5
2022-10-04T03:56:10.596Z,4.2
2022-10-04T04:02:30.851Z,4.2
2022-10-04T04:08:53.584Z,2.2
2022-10-04T04:15:13.629Z,2.2
2022-10-04T04:21:36.562Z,3.7
2022-10-04T04:27:56.526Z,3.7
2022-10-04T04:34:19.568Z,4
2022-10-04T04:40:39.470Z,4
2022-10-04T04:47:02.657Z,4.7
2022-10-04T04:53:22.687Z,4.7
2022-10-04T04:59:45.544Z,4.8
2022-10-04T05:06:05.644Z,4.8
2022-10-04T05:12:28.577Z,4.8
2022-10-04T05:18:48.567Z,4.8
2022-10-04T05:25:11.616Z,3.7
2022-10-04T05:31:31.576Z,3.7
2022-10-04T05:37:54.587Z,6.2
2022-10-04T05:44:14.559Z,6.2
2022-10-04T05:50:37.705Z,2.8
2022-10-04T05:56:57.739Z,2.8
2022-10-04T06:03:20.478Z,4.2
2022-10-04T06:09:40.605Z,4.2
2022-10-04T06:16:03.500Z,6
2022-10-04T06:22:23.602Z,6
2022-10-04T06:28:46.527Z,6.4
2022-10-04T06:35:06.602Z,6.4
2022-10-04T06:41:29.543Z,3.6
2022-10-04T06:47:49.497Z,3.6
2022-10-04T06:54:12.670Z,3
2022-10-04T07:00:32.564Z,3
2022-10-04T07:06:55.568Z,3
2022-10-04T07:13:15.664Z,3
2022-10-04T07:19:38.566Z,2
2022-10-04T07:25:58.652Z,2
2022-10-04T07:32:21.648Z,3.6
2022-10-04T07:38:41.639Z,3.6
2022-10-04T07:45:04.535Z,3.3
2022-10-04T07:51:24.890Z,3.3
2022-10-04T07:57:47.715Z,3.2
2022-10-04T08:20:53.549Z,7.2
2022-10-04T08:27:13.473Z,7.2
2022-10-04T08:33:36.542Z,3.9
2022-10-04T08:39:56.579Z,3.9
2022-10-04T08:46:19.647Z,5.5
2022-10-04T08:52:39.568Z,5.5
2022-10-04T08:59:02.587Z,1.2
2022-10-04T09:05:22.584Z,1.2
2022-10-04T09:11:46.014Z,2.4
2022-10-04T09:18:06.118Z,2.4
2022-10-04T09:24:29.628Z,1.7
2022-10-04T09:30:49.588Z,1.7
2022-10-04T09:37:12.785Z,2.6
2022-10-04T09:43:32.688Z,2.6
2022-10-04T09:49:55.950Z,3.2
2022-10-04T09:56:15.583Z,3.2
2022-10-04T10:02:38.558Z,2.9
2022-10-04T10:08:58.858Z,2.9
2022-10-04T10:15:21.540Z,2.7
2022-10-04T10:21:41.694Z,2.7
2022-10-04T10:28:04.650Z,2.3
2022-10-04T10:34:24.507Z,2.3
2022-10-04T10:40:47.546Z,1.2
2022-10-04T10:47:07.742Z,1.2
2022-10-04T10:53:31.071Z,1
2022-10-04T10:59:50.517Z,1
2022-10-04T11:06:13.521Z,0.7
2022-10-04T11:12:33.608Z,0.7
2022-10-04T11:18:56.645Z,1.5
2022-10-04T11:25:16.563Z,1.5
2022-10-04T11:31:39.626Z,2.2
2022-10-04T11:37:59.747Z,2.2
2022-10-04T11:44:22.513Z,1.7
2022-10-04T11:50:42.526Z,1.7
2022-10-04T11:57:05.657Z,2.6
2022-10-04T12:03:25.576Z,2.6
2022-10-04T12:09:48.581Z,1.6
2022-10-04T12:16:09.055Z,1.6
2022-10-04T12:22:31.520Z,2.2
2022-10-04T12:28:51.546Z,2.2
2022-10-04T12:35:14.596Z,1.6
2022-10-04T12:41:34.596Z,1.6
2022-10-04T12:47:57.510Z,1.8
2022-10-04T12:54:17.673Z,1.8
2022-10-04T13:00:40.518Z,1.8
2022-10-04T13:07:00.531Z,1.8
2022-10-04T13:13:23.758Z,1.3
2022-10-04T13:30:24.119Z,2.6
2022-10-04T13:36:46.029Z,2.6
2022-10-04T13:43:05.576Z,2.6
2022-10-04T13:49:28.640Z,2.6
2022-10-04T13:55:48.562Z,2.6
2022-10-04T14:02:11.529Z,2
2022-10-04T14:08:31.583Z,2
2022-10-04T14:14:54.524Z,1.2
2022-10-04T14:21:19.080Z,1.2
2022-10-04T14:27:37.525Z,1.4
2022-10-04T14:33:57.707Z,1.4
2022-10-04T14:40:20.547Z,2.1
2022-10-04T14:46:40.646Z,2.1
2022-10-04T14:53:03.579Z,1.1
2022-10-04T14:59:23.551Z,1.1
2022-10-04T15:05:46.658Z,2.2
2022-10-04T15:12:27.541Z,2.2
2022-10-04T15:18:30.563Z,0.9
2022-10-04T15:24:50.681Z,0.9
2022-10-04T15:31:13.754Z,1.6
2022-10-04T15:37:33.611Z,1.6
2022-10-04T15:43:56.610Z,2.7
2022-10-04T15:50:17.001Z,2.7
2022-10-04T15:56:39.861Z,2.4
2022-10-04T16:02:59.791Z,2.4
2022-10-04T16:09:22.512Z,1.1
2022-10-04T16:15:42.588Z,1.1
2022-10-04T16:22:05.734Z,1.6
2022-10-04T16:28:25.647Z,1.6
2022-10-04T16:34:48.724Z,1.9
2022-10-04T16:41:08.625Z,1.9
2022-10-04T16:47:31.512Z,2.5
2022-10-04T16:53:51.787Z,2.5
2022-10-04T17:00:14.702Z,1.3
2022-10-04T17:06:34.652Z,1.3
2022-10-04T17:12:57.716Z,2
2022-10-04T17:19:17.675Z,2
2022-10-04T17:25:40.715Z,1.4
2022-10-04T17:32:00.725Z,1.4
2022-10-04T17:38:23.641Z,1.8
2022-10-04T17:44:43.642Z,1.8
2022-10-04T17:51:06.546Z,2.2
2022-10-04T17:57:26.776Z,2.2
2022-10-04T18:03:49.636Z,2.6
2022-10-04T18:26:38.570Z,2.7
2022-10-04T18:32:58.482Z,2.7
2022-10-04T18:39:21.516Z,3.5
2022-10-04T18:45:41.510Z,3.5
2022-10-04T18:52:04.497Z,2.7
2022-10-04T18:58:24.659Z,2.7
2022-10-04T19:04:47.562Z,3.2
2022-10-04T19:11:07.621Z,3.2
2022-10-04T19:17:30.571Z,3
2022-10-04T19:23:50.625Z,3
2022-10-04T19:30:13.710Z,4
2022-10-04T19:36:33.651Z,4
2022-10-04T19:42:56.742Z,4
2022-10-04T19:49:16.719Z,4
2022-10-04T19:55:39.674Z,2.2
2022-10-04T20:01:59.600Z,2.2
2022-10-04T20:08:22.692Z,3.1
2022-10-04T20:14:42.563Z,3.1
2022-10-04T20:21:05.492Z,3.4
2022-10-04T20:27:25.640Z,3.4
2022-10-04T20:33:48.504Z,4.1
2022-10-04T20:40:09.181Z,4.1
2022-10-04T20:46:32.574Z,3.7
2022-10-04T20:52:52.458Z,3.7
2022-10-04T20:59:15.650Z,4.1
2022-10-04T21:05:35.550Z,4.1
2022-10-04T21:11:58.656Z,2.4
2022-10-04T21:18:18.521Z,2.4
2022-10-04T21:24:41.697Z,1.7
2022-10-04T21:31:01.793Z,1.7
2022-10-04T21:37:24.777Z,3
2022-10-04T21:43:44.631Z,3
2022-10-04T21:50:07.604Z,2.9
2022-10-04T21:56:27.698Z,2.9
2022-10-04T22:22:01.545Z,7.5
2022-10-04T22:28:21.506Z,7.5
2022-10-04T22:34:44.540Z,7.5
2022-10-04T22:41:04.743Z,7.5
2022-10-04T22:47:27.489Z,4.4
2022-10-04T22:53:47.590Z,4.4
2022-10-04T23:00:10.591Z,3.1
2022-10-04T23:06:30.549Z,3.1
2022-10-04T23:12:53.474Z,3.1
2022-10-04T23:19:13.674Z,3.1
2022-10-04T23:25:36.508Z,4.4
2022-10-04T23:31:56.619Z,4.4
2022-10-04T23:38:19.494Z,12.7
2022-10-04T23:44:39.610Z,12.7
2022-10-04T23:51:02.527Z,4.2
2022-10-04T23:57:22.536Z,4.2
